sensor_id;sensor_type;location;lat;lon;timestamp;P1;durP1;ratioP1;P2;durP2;ratioP2
19946;SDS011;10135;50.702;7.276;2022-09-09T05:30:16;3.43;;;1.50;;
19946;SDS011;10135;50.702;7.276;2022-09-09T05:32:18;3.37;;;1.20;;
19946;SDS011;10135;50.702;7.276;2022-09-09T05:34:19;1.30;;;1.00;;
19946;SDS011;10135;50.702;7.276;2022-09-09T05:36:21;1.93;;;1.00;;
19946;SDS011;10135;50.702;7.276;2022-09-09T05:38:23;3.27;;;1.10;;
19946;SDS011;10135;50.702;7.276;2022-09-09T05:40:26;2.63;;;1.20;;
19946;SDS011;10135;50.702;7.276;2022-09-09T05:42:29;5.00;;;1.33;;
19946;SDS011;10135;50.702;7.276;2022-09-09T05:44:32;3.27;;;1.07;;
19946;SDS011;10135;50.702;7.276;2022-09-09T05:46:33;3.23;;;1.20;;
19946;SDS011;10135;50.702;7.276;2022-09-09T05:48:34;3.95;;;1.00;;
19946;SDS011;10135;50.702;7.276;2022-09-09T05:50:37;1.73;;;0.90;;
19946;SDS011;10135;50.702;7.276;2022-09-09T05:52:38;3.53;;;1.13;;
19946;SDS011;10135;50.702;7.276;2022-09-09T05:54:38;0.98;;;0.90;;
19946;SDS011;10135;50.702;7.276;2022-09-09T05:56:40;2.30;;;0.90;;
19946;SDS011;10135;50.702;7.276;2022-09-09T05:58:41;1.90;;;1.00;;
19946;SDS011;10135;50.702;7.276;2022-09-09T06:00:43;2.22;;;1.20;;
19946;SDS011;10135;50.702;7.276;2022-09-09T06:02:49;2.80;;;1.02;;
19946;SDS011;10135;50.702;7.276;2022-09-09T06:04:52;1.95;;;1.33;;
19946;SDS011;10135;50.702;7.276;2022-09-09T06:06:52;1.33;;;1.02;;
19946;SDS011;10135;50.702;7.276;2022-09-09T06:08:54;3.70;;;0.90;;
19946;SDS011;10135;50.702;7.276;2022-09-09T06:11:04;1.27;;;1.00;;
19946;SDS011;10135;50.702;7.276;2022-09-09T06:13:10;3.72;;;1.00;;
19946;SDS011;10135;50.702;7.276;2022-09-09T06:15:11;3.92;;;1.20;;
19946;SDS011;10135;50.702;7.276;2022-09-09T06:17:12;1.52;;;1.10;;
19946;SDS011;10135;50.702;7.276;2022-09-09T06:19:12;0.83;;;0.83;;
19946;SDS011;10135;50.702;7.276;2022-09-09T06:23:16;1.98;;;1.20;;
19946;SDS011;10135;50.702;7.276;2022-09-09T06:25:17;1.67;;;1.20;;
19946;SDS011;10135;50.702;7.276;2022-09-09T06:27:18;1.35;;;0.88;;
19946;SDS011;10135;50.702;7.276;2022-09-09T06:29:19;2.45;;;1.20;;
19946;SDS011;10135;50.702;7.276;2022-09-09T06:31:23;3.03;;;1.33;;
19946;SDS011;10135;50.702;7.276;2022-09-09T06:33:30;1.30;;;1.20;;
19946;SDS011;10135;50.702;7.276;2022-09-09T06:35:37;2.17;;;1.10;;
19946;SDS011;10135;50.702;7.276;2022-09-09T06:37:38;3.83;;;1.30;;
19946;SDS011;10135;50.702;7.276;2022-09-09T06:39:39;2.03;;;1.00;;
19946;SDS011;10135;50.702;7.276;2022-09-09T06:41:40;4.82;;;1.30;;
19946;SDS011;10135;50.702;7.276;2022-09-09T06:43:42;1.80;;;1.23;;
19946;SDS011;10135;50.702;7.276;2022-09-09T06:45:43;2.47;;;1.50;;
19946;SDS011;10135;50.702;7.276;2022-09-09T06:47:44;1.40;;;1.00;;
19946;SDS011;10135;50.702;7.276;2022-09-09T06:49:45;1.65;;;1.10;;
19946;SDS011;10135;50.702;7.276;2022-09-09T06:51:46;1.37;;;0.97;;
19946;SDS011;10135;50.702;7.276;2022-09-09T06:53:47;1.33;;;1.05;;
19946;SDS011;10135;50.702;7.276;2022-09-09T06:55:52;1.40;;;0.90;;
19946;SDS011;10135;50.702;7.276;2022-09-09T06:57:54;1.85;;;1.08;;
19946;SDS011;10135;50.702;7.276;2022-09-09T06:59:55;2.63;;;0.88;;
19946;SDS011;10135;50.702;7.276;2022-09-09T07:01:55;2.75;;;1.35;;
19946;SDS011;10135;50.702;7.276;2022-09-09T07:03:57;2.70;;;0.98;;
19946;SDS011;10135;50.702;7.276;2022-09-09T07:05:59;1.00;;;0.80;;
19946;SDS011;10135;50.702;7.276;2022-09-09T07:08:01;1.13;;;1.10;;
19946;SDS011;10135;50.702;7.276;2022-09-09T07:10:02;2.10;;;1.20;;
19946;SDS011;10135;50.702;7.276;2022-09-09T07:12:04;3.28;;;1.20;;
19946;SDS011;10135;50.702;7.276;2022-09-09T07:14:06;3.30;;;1.23;;
19946;SDS011;10135;50.702;7.276;2022-09-09T07:16:09;1.10;;;1.00;;
19946;SDS011;10135;50.702;7.276;2022-09-09T07:18:12;1.48;;;0.88;;
19946;SDS011;10135;50.702;7.276;2022-09-09T07:20:13;1.20;;;1.10;;
19946;SDS011;10135;50.702;7.276;2022-09-09T07:22:14;1.10;;;1.00;;
19946;SDS011;10135;50.702;7.276;2022-09-09T07:24:16;0.93;;;0.82;;
19946;SDS011;10135;50.702;7.276;2022-09-09T07:26:17;1.92;;;1.15;;
19946;SDS011;10135;50.702;7.276;2022-09-09T07:28:21;1.90;;;1.02;;
19946;SDS011;10135;50.702;7.276;2022-09-09T07:30:22;4.03;;;1.10;;
19946;SDS011;10135;50.702;7.276;2022-09-09T07:32:23;2.75;;;1.17;;
19946;SDS011;10135;50.702;7.276;2022-09-09T07:34:25;2.03;;;1.00;;
19946;SDS011;10135;50.702;7.276;2022-09-09T07:36:27;1.30;;;1.20;;
19946;SDS011;10135;50.702;7.276;2022-09-09T07:38:41;1.45;;;1.00;;
19946;SDS011;10135;50.702;7.276;2022-09-09T07:40:46;3.08;;;1.00;;
19946;SDS011;10135;50.702;7.276;2022-09-09T07:42:47;2.53;;;1.27;;
19946;SDS011;10135;50.702;7.276;2022-09-09T07:44:48;3.15;;;1.35;;
19946;SDS011;10135;50.702;7.276;2022-09-09T07:46:49;2.15;;;1.23;;
19946;SDS011;10135;50.702;7.276;2022-09-09T07:48:50;1.98;;;0.95;;
19946;SDS011;10135;50.702;7.276;2022-09-09T07:53:08;4.88;;;1.17;;
19946;SDS011;10135;50.702;7.276;2022-09-09T07:55:08;1.35;;;1.17;;
19946;SDS011;10135;50.702;7.276;2022-09-09T07:57:10;2.40;;;1.17;;
19946;SDS011;10135;50.702;7.276;2022-09-09T07:59:12;3.58;;;1.13;;
19946;SDS011;10135;50.702;7.276;2022-09-09T08:01:14;2.25;;;0.85;;
19946;SDS011;10135;50.702;7.276;2022-09-09T08:03:19;3.95;;;1.05;;
19946;SDS011;10135;50.702;7.276;2022-09-09T08:05:21;8.23;;;1.38;;
19946;SDS011;10135;50.702;7.276;2022-09-09T08:07:22;3.42;;;1.00;;
19946;SDS011;10135;50.702;7.276;2022-09-09T08:09:23;1.65;;;1.10;;
19946;SDS011;10135;50.702;7.276;2022-09-09T08:11:27;1.67;;;1.08;;
19946;SDS011;10135;50.702;7.276;2022-09-09T08:13:29;3.40;;;1.02;;
19946;SDS011;10135;50.702;7.276;2022-09-09T08:15:31;2.20;;;1.23;;
19946;SDS011;10135;50.702;7.276;2022-09-09T08:17:32;5.53;;;1.27;;
19946;SDS011;10135;50.702;7.276;2022-09-09T08:19:32;1.75;;;1.10;;
19946;SDS011;10135;50.702;7.276;2022-09-09T08:21:36;1.52;;;1.10;;
19946;SDS011;10135;50.702;7.276;2022-09-09T08:23:40;5.20;;;1.67;;
19946;SDS011;10135;50.702;7.276;2022-09-09T08:25:42;2.13;;;0.98;;
19946;SDS011;10135;50.702;7.276;2022-09-09T08:27:45;2.72;;;1.05;;
19946;SDS011;10135;50.702;7.276;2022-09-09T08:29:45;2.58;;;1.10;;
19946;SDS011;10135;50.702;7.276;2022-09-09T08:31:47;3.60;;;1.05;;
19946;SDS011;10135;50.702;7.276;2022-09-09T08:33:51;1.33;;;1.00;;
19946;SDS011;10135;50.702;7.276;2022-09-09T08:35:51;4.43;;;1.17;;
19946;SDS011;10135;50.702;7.276;2022-09-09T08:37:55;2.25;;;0.90;;
19946;SDS011;10135;50.702;7.276;2022-09-09T08:39:55;1.98;;;1.00;;
19946;SDS011;10135;50.702;7.276;2022-09-09T08:46:40;2.58;;;1.27;;
19946;SDS011;10135;50.702;7.276;2022-09-09T08:48:56;1.20;;;0.90;;
19946;SDS011;10135;50.702;7.276;2022-09-09T08:51:14;1.92;;;1.00;;
19946;SDS011;10135;50.702;7.276;2022-09-09T08:53:17;1.73;;;0.90;;
19946;SDS011;10135;50.702;7.276;2022-09-09T08:57:59;3.67;;;1.08;;
19946;SDS011;10135;50.702;7.276;2022-09-09T09:00:14;0.80;;;0.80;;
19946;SDS011;10135;50.702;7.276;2022-09-09T09:02:17;1.95;;;1.00;;
19946;SDS011;10135;50.702;7.276;2022-09-09T09:04:38;1.42;;;0.95;;
19946;SDS011;10135;50.702;7.276;2022-09-09T09:07:07;2.10;;;0.90;;
19946;SDS011;10135;50.702;7.276;2022-09-09T09:11:59;2.95;;;0.95;;
19946;SDS011;10135;50.702;7.276;2022-09-09T09:14:18;1.17;;;0.88;;
19946;SDS011;10135;50.702;7.276;2022-09-09T09:16:26;2.92;;;1.00;;
19946;SDS011;10135;50.702;7.276;2022-09-09T09:18:49;2.78;;;1.13;;
19946;SDS011;10135;50.702;7.276;2022-09-09T09:23:03;1.20;;;0.93;;
19946;SDS011;10135;50.702;7.276;2022-09-09T09:29:58;1.05;;;0.95;;
19946;SDS011;10135;50.702;7.276;2022-09-09T09:32:21;2.47;;;0.98;;
19946;SDS011;10135;50.702;7.276;2022-09-09T09:34:23;2.97;;;1.05;;
19946;SDS011;10135;50.702;7.276;2022-09-09T09:36:34;0.85;;;0.85;;
19946;SDS011;10135;50.702;7.276;2022-09-09T09:38:55;2.03;;;1.10;;
19946;SDS011;10135;50.702;7.276;2022-09-09T09:41:00;3.97;;;1.08;;
19946;SDS011;10135;50.702;7.276;2022-09-09T09:43:02;0.70;;;0.70;;
19946;SDS011;10135;50.702;7.276;2022-09-09T09:45:25;3.55;;;1.08;;
19946;SDS011;10135;50.702;7.276;2022-09-09T09:47:41;2.58;;;0.82;;
19946;SDS011;10135;50.702;7.276;2022-09-09T09:49:55;2.22;;;0.88;;
19946;SDS011;10135;50.702;7.276;2022-09-09T09:52:02;1.30;;;1.20;;
19946;SDS011;10135;50.702;7.276;2022-09-09T09:54:07;1.98;;;0.88;;
19946;SDS011;10135;50.702;7.276;2022-09-09T09:56:26;2.25;;;1.02;;
19946;SDS011;10135;50.702;7.276;2022-09-09T09:58:32;1.25;;;1.00;;
19946;SDS011;10135;50.702;7.276;2022-09-09T10:00:50;2.50;;;0.85;;
19946;SDS011;10135;50.702;7.276;2022-09-09T10:02:53;2.72;;;1.45;;
19946;SDS011;10135;50.702;7.276;2022-09-09T10:05:03;1.50;;;0.90;;
19946;SDS011;10135;50.702;7.276;2022-09-09T10:19:31;2.42;;;0.93;;
19946;SDS011;10135;50.702;7.276;2022-09-09T10:24:32;1.15;;;0.80;;
19946;SDS011;10135;50.702;7.276;2022-09-09T10:31:24;1.88;;;0.80;;
19946;SDS011;10135;50.702;7.276;2022-09-09T10:38:28;1.00;;;0.80;;
19946;SDS011;10135;50.702;7.276;2022-09-09T10:42:56;1.70;;;1.05;;
19946;SDS011;10135;50.702;7.276;2022-09-09T10:45:29;1.65;;;0.73;;
19946;SDS011;10135;50.702;7.276;2022-09-09T10:50:27;1.83;;;0.90;;
19946;SDS011;10135;50.702;7.276;2022-09-09T10:55:02;2.15;;;1.02;;
19946;SDS011;10135;50.702;7.276;2022-09-09T10:57:13;2.03;;;0.90;;
19946;SDS011;10135;50.702;7.276;2022-09-09T10:59:24;5.53;;;1.25;;
19946;SDS011;10135;50.702;7.276;2022-09-09T11:01:33;0.80;;;0.77;;
19946;SDS011;10135;50.702;7.276;2022-09-09T11:03:57;2.25;;;1.08;;
19946;SDS011;10135;50.702;7.276;2022-09-09T11:06:13;1.42;;;0.90;;
19946;SDS011;10135;50.702;7.276;2022-09-09T11:08:20;4.40;;;1.10;;
19946;SDS011;10135;50.702;7.276;2022-09-09T11:12:41;3.22;;;1.15;;
19946;SDS011;10135;50.702;7.276;2022-09-09T11:14:54;1.75;;;0.90;;
19946;SDS011;10135;50.702;7.276;2022-09-09T11:17:09;0.90;;;0.65;;
19946;SDS011;10135;50.702;7.276;2022-09-09T11:21:44;3.95;;;1.45;;
19946;SDS011;10135;50.702;7.276;2022-09-09T11:23:50;1.98;;;1.08;;
19946;SDS011;10135;50.702;7.276;2022-09-09T11:25:59;1.80;;;0.90;;
19946;SDS011;10135;50.702;7.276;2022-09-09T11:30:33;3.25;;;1.23;;
19946;SDS011;10135;50.702;7.276;2022-09-09T11:40:32;0.88;;;0.80;;
19946;SDS011;10135;50.702;7.276;2022-09-09T11:42:33;0.82;;;0.70;;
19946;SDS011;10135;50.702;7.276;2022-09-09T11:44:34;2.17;;;0.90;;
19946;SDS011;10135;50.702;7.276;2022-09-09T11:46:36;1.70;;;0.90;;
19946;SDS011;10135;50.702;7.276;2022-09-09T11:50:45;1.00;;;0.90;;
19946;SDS011;10135;50.702;7.276;2022-09-09T11:52:46;2.10;;;0.80;;
19946;SDS011;10135;50.702;7.276;2022-09-09T11:54:49;1.35;;;0.80;;
19946;SDS011;10135;50.702;7.276;2022-09-09T11:56:50;1.33;;;0.90;;
19946;SDS011;10135;50.702;7.276;2022-09-09T11:58:55;0.80;;;0.80;;
19946;SDS011;10135;50.702;7.276;2022-09-09T12:00:56;1.63;;;0.82;;
19946;SDS011;10135;50.702;7.276;2022-09-09T12:02:57;1.95;;;0.85;;
19946;SDS011;10135;50.702;7.276;2022-09-09T12:09:33;1.08;;;0.80;;
19946;SDS011;10135;50.702;7.276;2022-09-09T12:12:21;5.75;;;1.23;;
19946;SDS011;10135;50.702;7.276;2022-09-09T12:14:43;0.85;;;0.85;;
19946;SDS011;10135;50.702;7.276;2022-09-09T12:17:26;0.70;;;0.70;;
19946;SDS011;10135;50.702;7.276;2022-09-09T12:19:30;1.65;;;0.80;;
19946;SDS011;10135;50.702;7.276;2022-09-09T12:31:21;2.35;;;0.90;;
19946;SDS011;10135;50.702;7.276;2022-09-09T12:34:02;1.98;;;0.70;;
19946;SDS011;10135;50.702;7.276;2022-09-09T12:36:12;1.25;;;0.70;;
19946;SDS011;10135;50.702;7.276;2022-09-09T12:38:29;1.48;;;0.80;;
19946;SDS011;10135;50.702;7.276;2022-09-09T12:40:36;0.68;;;0.68;;
19946;SDS011;10135;50.702;7.276;2022-09-09T12:42:39;2.40;;;0.70;;
19946;SDS011;10135;50.702;7.276;2022-09-09T12:44:49;1.63;;;1.00;;
19946;SDS011;10135;50.702;7.276;2022-09-09T12:46:52;1.05;;;0.80;;
19946;SDS011;10135;50.702;7.276;2022-09-09T12:48:55;1.15;;;0.80;;
19946;SDS011;10135;50.702;7.276;2022-09-09T12:50:56;0.55;;;0.55;;
19946;SDS011;10135;50.702;7.276;2022-09-09T12:52:58;0.77;;;0.77;;
19946;SDS011;10135;50.702;7.276;2022-09-09T12:55:07;0.75;;;0.75;;
19946;SDS011;10135;50.702;7.276;2022-09-09T12:57:22;1.27;;;0.75;;
19946;SDS011;10135;50.702;7.276;2022-09-09T12:59:27;3.67;;;0.77;;
19946;SDS011;10135;50.702;7.276;2022-09-09T13:01:40;1.50;;;0.93;;
19946;SDS011;10135;50.702;7.276;2022-09-09T13:03:43;3.03;;;0.80;;
19946;SDS011;10135;50.702;7.276;2022-09-09T13:05:45;2.17;;;0.85;;
19946;SDS011;10135;50.702;7.276;2022-09-09T13:07:47;2.13;;;0.90;;
19946;SDS011;10135;50.702;7.276;2022-09-09T13:09:48;2.58;;;0.73;;
19946;SDS011;10135;50.702;7.276;2022-09-09T13:11:50;1.30;;;0.85;;
19946;SDS011;10135;50.702;7.276;2022-09-09T13:13:56;2.50;;;0.93;;
19946;SDS011;10135;50.702;7.276;2022-09-09T13:15:59;1.23;;;0.88;;
19946;SDS011;10135;50.702;7.276;2022-09-09T13:18:03;1.02;;;0.90;;
19946;SDS011;10135;50.702;7.276;2022-09-09T13:20:16;1.10;;;0.60;;
19946;SDS011;10135;50.702;7.276;2022-09-09T13:24:31;1.83;;;0.70;;
19946;SDS011;10135;50.702;7.276;2022-09-09T13:26:34;0.68;;;0.55;;
19946;SDS011;10135;50.702;7.276;2022-09-09T13:28:35;0.88;;;0.73;;
19946;SDS011;10135;50.702;7.276;2022-09-09T13:30:36;1.50;;;0.70;;
19946;SDS011;10135;50.702;7.276;2022-09-09T13:32:40;0.60;;;0.60;;
19946;SDS011;10135;50.702;7.276;2022-09-09T13:34:49;1.20;;;0.63;;
19946;SDS011;10135;50.702;7.276;2022-09-09T13:37:00;1.13;;;0.70;;
19946;SDS011;10135;50.702;7.276;2022-09-09T13:39:12;0.80;;;0.70;;
19946;SDS011;10135;50.702;7.276;2022-09-09T13:41:36;2.63;;;1.05;;
19946;SDS011;10135;50.702;7.276;2022-09-09T13:43:44;1.63;;;0.65;;
19946;SDS011;10135;50.702;7.276;2022-09-09T13:45:56;1.20;;;0.80;;
19946;SDS011;10135;50.702;7.276;2022-09-09T13:48:08;0.57;;;0.57;;
19946;SDS011;10135;50.702;7.276;2022-09-09T13:52:30;0.82;;;0.60;;
19946;SDS011;10135;50.702;7.276;2022-09-09T13:54:31;3.05;;;1.00;;
19946;SDS011;10135;50.702;7.276;2022-09-09T13:56:36;0.70;;;0.70;;
19946;SDS011;10135;50.702;7.276;2022-09-09T13:58:38;2.05;;;0.65;;
19946;SDS011;10135;50.702;7.276;2022-09-09T14:00:39;1.38;;;0.88;;
19946;SDS011;10135;50.702;7.276;2022-09-09T14:02:39;2.72;;;0.90;;
19946;SDS011;10135;50.702;7.276;2022-09-09T14:04:40;0.45;;;0.45;;
19946;SDS011;10135;50.702;7.276;2022-09-09T14:06:41;1.70;;;0.82;;
19946;SDS011;10135;50.702;7.276;2022-09-09T14:08:43;1.13;;;0.60;;
19946;SDS011;10135;50.702;7.276;2022-09-09T14:10:44;0.50;;;0.50;;
19946;SDS011;10135;50.702;7.276;2022-09-09T14:12:45;2.15;;;0.50;;
19946;SDS011;10135;50.702;7.276;2022-09-09T14:14:46;2.42;;;0.70;;
19946;SDS011;10135;50.702;7.276;2022-09-09T14:16:47;0.77;;;0.60;;
19946;SDS011;10135;50.702;7.276;2022-09-09T14:18:48;0.85;;;0.80;;
19946;SDS011;10135;50.702;7.276;2022-09-09T14:20:48;2.10;;;0.93;;
19946;SDS011;10135;50.702;7.276;2022-09-09T14:22:50;1.58;;;0.80;;
19946;SDS011;10135;50.702;7.276;2022-09-09T14:24:51;0.88;;;0.88;;
19946;SDS011;10135;50.702;7.276;2022-09-09T14:26:51;0.88;;;0.73;;
19946;SDS011;10135;50.702;7.276;2022-09-09T14:28:52;0.73;;;0.65;;
19946;SDS011;10135;50.702;7.276;2022-09-09T14:30:53;1.05;;;0.68;;
19946;SDS011;10135;50.702;7.276;2022-09-09T14:32:53;0.70;;;0.60;;
19946;SDS011;10135;50.702;7.276;2022-09-09T14:34:54;0.60;;;0.60;;
19946;SDS011;10135;50.702;7.276;2022-09-09T14:36:55;2.42;;;0.88;;
19946;SDS011;10135;50.702;7.276;2022-09-09T14:38:55;2.47;;;0.63;;
19946;SDS011;10135;50.702;7.276;2022-09-09T14:40:57;0.75;;;0.47;;
19946;SDS011;10135;50.702;7.276;2022-09-09T14:42:58;1.40;;;0.73;;
19946;SDS011;10135;50.702;7.276;2022-09-09T14:44:59;0.50;;;0.50;;
19946;SDS011;10135;50.702;7.276;2022-09-09T14:46:59;0.40;;;0.40;;
19946;SDS011;10135;50.702;7.276;2022-09-09T14:49:00;0.75;;;0.38;;
19946;SDS011;10135;50.702;7.276;2022-09-09T14:51:43;1.15;;;0.50;;
19946;SDS011;10135;50.702;7.276;2022-09-09T14:53:27;1.70;;;0.50;;
19946;SDS011;10135;50.702;7.276;2022-09-09T14:55:27;0.77;;;0.65;;
19946;SDS011;10135;50.702;7.276;2022-09-09T14:57:29;0.60;;;0.60;;
19946;SDS011;10135;50.702;7.276;2022-09-09T14:59:30;1.67;;;0.40;;
19946;SDS011;10135;50.702;7.276;2022-09-09T15:01:30;0.70;;;0.70;;
19946;SDS011;10135;50.702;7.276;2022-09-09T15:03:32;0.55;;;0.55;;
19946;SDS011;10135;50.702;7.276;2022-09-09T15:05:33;1.00;;;1.00;;
19946;SDS011;10135;50.702;7.276;2022-09-09T15:07:36;1.70;;;0.90;;
19946;SDS011;10135;50.702;7.276;2022-09-09T15:09:38;0.70;;;0.70;;
19946;SDS011;10135;50.702;7.276;2022-09-09T15:11:38;1.08;;;0.70;;
19946;SDS011;10135;50.702;7.276;2022-09-09T15:13:40;0.65;;;0.60;;
19946;SDS011;10135;50.702;7.276;2022-09-09T15:15:42;1.67;;;0.70;;
19946;SDS011;10135;50.702;7.276;2022-09-09T15:17:43;0.60;;;0.60;;
19946;SDS011;10135;50.702;7.276;2022-09-09T15:19:44;0.88;;;0.43;;
19946;SDS011;10135;50.702;7.276;2022-09-09T15:21:45;0.77;;;0.75;;
19946;SDS011;10135;50.702;7.276;2022-09-09T15:23:46;1.95;;;0.85;;
19946;SDS011;10135;50.702;7.276;2022-09-09T15:25:52;0.50;;;0.50;;
19946;SDS011;10135;50.702;7.276;2022-09-09T15:27:55;0.45;;;0.45;;
19946;SDS011;10135;50.702;7.276;2022-09-09T15:29:56;1.00;;;0.60;;
19946;SDS011;10135;50.702;7.276;2022-09-09T15:31:58;0.75;;;0.60;;
19946;SDS011;10135;50.702;7.276;2022-09-09T15:34:00;0.43;;;0.43;;
19946;SDS011;10135;50.702;7.276;2022-09-09T15:36:16;0.50;;;0.50;;
19946;SDS011;10135;50.702;7.276;2022-09-09T15:38:23;1.05;;;0.73;;
19946;SDS011;10135;50.702;7.276;2022-09-09T15:40:24;0.50;;;0.50;;
19946;SDS011;10135;50.702;7.276;2022-09-09T15:42:25;0.70;;;0.70;;
19946;SDS011;10135;50.702;7.276;2022-09-09T15:44:26;0.80;;;0.80;;
19946;SDS011;10135;50.702;7.276;2022-09-09T15:48:41;0.57;;;0.57;;
19946;SDS011;10135;50.702;7.276;2022-09-09T15:50:41;0.50;;;0.50;;
19946;SDS011;10135;50.702;7.276;2022-09-09T15:52:42;1.15;;;0.77;;
19946;SDS011;10135;50.702;7.276;2022-09-09T15:54:42;0.40;;;0.40;;
19946;SDS011;10135;50.702;7.276;2022-09-09T15:56:44;0.70;;;0.70;;
19946;SDS011;10135;50.702;7.276;2022-09-09T15:58:48;0.70;;;0.70;;
19946;SDS011;10135;50.702;7.276;2022-09-09T16:00:49;1.85;;;0.60;;
19946;SDS011;10135;50.702;7.276;2022-09-09T16:02:51;1.58;;;0.55;;
19946;SDS011;10135;50.702;7.276;2022-09-09T16:04:53;0.60;;;0.60;;
19946;SDS011;10135;50.702;7.276;2022-09-09T16:06:54;0.70;;;0.70;;
19946;SDS011;10135;50.702;7.276;2022-09-09T16:08:58;0.40;;;0.40;;
19946;SDS011;10135;50.702;7.276;2022-09-09T16:11:12;0.70;;;0.70;;
19946;SDS011;10135;50.702;7.276;2022-09-09T16:13:15;0.50;;;0.50;;
19946;SDS011;10135;50.702;7.276;2022-09-09T16:15:16;0.50;;;0.50;;
19946;SDS011;10135;50.702;7.276;2022-09-09T16:17:16;0.50;;;0.50;;
19946;SDS011;10135;50.702;7.276;2022-09-09T16:19:19;0.55;;;0.45;;
19946;SDS011;10135;50.702;7.276;2022-09-09T16:21:30;1.45;;;0.90;;
19946;SDS011;10135;50.702;7.276;2022-09-09T16:23:35;2.47;;;0.98;;
19946;SDS011;10135;50.702;7.276;2022-09-09T16:25:35;0.98;;;0.70;;
19946;SDS011;10135;50.702;7.276;2022-09-09T16:27:36;0.93;;;0.85;;
19946;SDS011;10135;50.702;7.276;2022-09-09T16:29:37;1.83;;;0.90;;
19946;SDS011;10135;50.702;7.276;2022-09-09T16:31:37;1.13;;;0.50;;
19946;SDS011;10135;50.702;7.276;2022-09-09T16:33:39;0.50;;;0.50;;
19946;SDS011;10135;50.702;7.276;2022-09-09T16:35:41;1.02;;;0.60;;
19946;SDS011;10135;50.702;7.276;2022-09-09T16:37:42;0.60;;;0.60;;
19946;SDS011;10135;50.702;7.276;2022-09-09T16:39:43;1.20;;;0.75;;
19946;SDS011;10135;50.702;7.276;2022-09-09T16:41:44;0.75;;;0.50;;
19946;SDS011;10135;50.702;7.276;2022-09-09T16:43:52;0.77;;;0.77;;
19946;SDS011;10135;50.702;7.276;2022-09-09T16:45:59;1.65;;;0.70;;
19946;SDS011;10135;50.702;7.276;2022-09-09T16:48:02;0.60;;;0.60;;
19946;SDS011;10135;50.702;7.276;2022-09-09T16:50:03;0.60;;;0.60;;
19946;SDS011;10135;50.702;7.276;2022-09-09T16:52:04;1.00;;;0.88;;
19946;SDS011;10135;50.702;7.276;2022-09-09T16:54:05;0.80;;;0.80;;
19946;SDS011;10135;50.702;7.276;2022-09-09T16:56:09;0.63;;;0.63;;
19946;SDS011;10135;50.702;7.276;2022-09-09T16:58:16;1.52;;;0.70;;
19946;SDS011;10135;50.702;7.276;2022-09-09T17:00:16;1.15;;;0.68;;
19946;SDS011;10135;50.702;7.276;2022-09-09T17:02:17;0.60;;;0.60;;
19946;SDS011;10135;50.702;7.276;2022-09-09T17:04:19;0.60;;;0.60;;
19946;SDS011;10135;50.702;7.276;2022-09-09T17:06:23;0.70;;;0.55;;
19946;SDS011;10135;50.702;7.276;2022-09-09T17:08:25;0.80;;;0.73;;
19946;SDS011;10135;50.702;7.276;2022-09-09T17:10:25;0.90;;;0.70;;
19946;SDS011;10135;50.702;7.276;2022-09-09T17:12:26;0.82;;;0.80;;
19946;SDS011;10135;50.702;7.276;2022-09-09T17:14:27;0.90;;;0.70;;
19946;SDS011;10135;50.702;7.276;2022-09-09T17:16:29;0.63;;;0.63;;
19946;SDS011;10135;50.702;7.276;2022-09-09T17:18:31;0.77;;;0.77;;
19946;SDS011;10135;50.702;7.276;2022-09-09T17:20:34;0.95;;;0.80;;
19946;SDS011;10135;50.702;7.276;2022-09-09T17:22:40;1.20;;;1.05;;
19946;SDS011;10135;50.702;7.276;2022-09-09T17:24:40;0.90;;;0.80;;
19946;SDS011;10135;50.702;7.276;2022-09-09T17:26:41;1.10;;;1.00;;
19946;SDS011;10135;50.702;7.276;2022-09-09T17:28:42;2.22;;;0.90;;
19946;SDS011;10135;50.702;7.276;2022-09-09T17:30:45;1.67;;;1.15;;
19946;SDS011;10135;50.702;7.276;2022-09-09T17:32:47;1.17;;;1.08;;
19946;SDS011;10135;50.702;7.276;2022-09-09T17:34:47;3.53;;;1.00;;
19946;SDS011;10135;50.702;7.276;2022-09-09T17:36:48;1.33;;;1.00;;
19946;SDS011;10135;50.702;7.276;2022-09-09T17:38:49;0.80;;;0.80;;
19946;SDS011;10135;50.702;7.276;2022-09-09T17:40:59;1.55;;;1.00;;
19946;SDS011;10135;50.702;7.276;2022-09-09T17:43:06;0.73;;;0.70;;
19946;SDS011;10135;50.702;7.276;2022-09-09T17:45:08;1.55;;;0.80;;
19946;SDS011;10135;50.702;7.276;2022-09-09T17:47:09;0.95;;;0.63;;
19946;SDS011;10135;50.702;7.276;2022-09-09T17:49:14;0.70;;;0.70;;
19946;SDS011;10135;50.702;7.276;2022-09-09T17:51:18;0.60;;;0.60;;
19946;SDS011;10135;50.702;7.276;2022-09-09T17:53:23;1.35;;;0.55;;
19946;SDS011;10135;50.702;7.276;2022-09-09T17:55:24;0.57;;;0.57;;
19946;SDS011;10135;50.702;7.276;2022-09-09T17:57:25;0.95;;;0.70;;
19946;SDS011;10135;50.702;7.276;2022-09-09T17:59:25;2.17;;;0.77;;
19946;SDS011;10135;50.702;7.276;2022-09-09T18:01:27;0.73;;;0.70;;
19946;SDS011;10135;50.702;7.276;2022-09-09T18:03:40;0.70;;;0.70;;
19946;SDS011;10135;50.702;7.276;2022-09-09T18:05:43;0.73;;;0.60;;
19946;SDS011;10135;50.702;7.276;2022-09-09T18:07:44;0.60;;;0.60;;
19946;SDS011;10135;50.702;7.276;2022-09-09T18:09:44;1.38;;;0.70;;
19946;SDS011;10135;50.702;7.276;2022-09-09T18:11:47;1.00;;;0.70;;
19946;SDS011;10135;50.702;7.276;2022-09-09T18:13:54;0.65;;;0.65;;
19946;SDS011;10135;50.702;7.276;2022-09-09T18:15:57;0.63;;;0.63;;
19946;SDS011;10135;50.702;7.276;2022-09-09T18:17:58;1.33;;;0.80;;
19946;SDS011;10135;50.702;7.276;2022-09-09T18:20:01;0.77;;;0.63;;
19946;SDS011;10135;50.702;7.276;2022-09-09T18:22:03;1.23;;;0.75;;
19946;SDS011;10135;50.702;7.276;2022-09-09T18:24:06;0.70;;;0.70;;
19946;SDS011;10135;50.702;7.276;2022-09-09T18:28:11;0.75;;;0.60;;
19946;SDS011;10135;50.702;7.276;2022-09-09T18:30:11;1.98;;;0.80;;
19946;SDS011;10135;50.702;7.276;2022-09-09T18:32:13;1.83;;;1.08;;
19946;SDS011;10135;50.702;7.276;2022-09-09T18:34:15;0.70;;;0.70;;
19946;SDS011;10135;50.702;7.276;2022-09-09T18:36:19;0.70;;;0.70;;
19946;SDS011;10135;50.702;7.276;2022-09-09T18:38:23;0.75;;;0.75;;
19946;SDS011;10135;50.702;7.276;2022-09-09T18:40:24;0.85;;;0.70;;
19946;SDS011;10135;50.702;7.276;2022-09-09T18:42:25;0.80;;;0.80;;
19946;SDS011;10135;50.702;7.276;2022-09-09T18:44:28;0.70;;;0.70;;
19946;SDS011;10135;50.702;7.276;2022-09-09T18:46:33;2.55;;;0.90;;
19946;SDS011;10135;50.702;7.276;2022-09-09T18:48:35;1.30;;;0.80;;
19946;SDS011;10135;50.702;7.276;2022-09-09T18:50:36;1.15;;;1.00;;
19946;SDS011;10135;50.702;7.276;2022-09-09T18:52:37;0.80;;;0.80;;
19946;SDS011;10135;50.702;7.276;2022-09-09T18:54:37;1.10;;;0.90;;
19946;SDS011;10135;50.702;7.276;2022-09-09T18:56:40;0.95;;;0.82;;
19946;SDS011;10135;50.702;7.276;2022-09-09T18:58:42;1.00;;;1.00;;
19946;SDS011;10135;50.702;7.276;2022-09-09T19:00:44;1.97;;;0.90;;
19946;SDS011;10135;50.702;7.276;2022-09-09T19:02:47;1.10;;;0.93;;
19946;SDS011;10135;50.702;7.276;2022-09-09T19:04:51;0.80;;;0.80;;
19946;SDS011;10135;50.702;7.276;2022-09-09T19:06:52;0.77;;;0.77;;
19946;SDS011;10135;50.702;7.276;2022-09-09T19:08:56;1.50;;;1.00;;
19946;SDS011;10135;50.702;7.276;2022-09-09T19:11:00;1.30;;;1.20;;
19946;SDS011;10135;50.702;7.276;2022-09-09T19:13:01;1.27;;;1.00;;
19946;SDS011;10135;50.702;7.276;2022-09-09T19:15:02;1.20;;;0.80;;
19946;SDS011;10135;50.702;7.276;2022-09-09T19:17:03;1.07;;;0.90;;
19946;SDS011;10135;50.702;7.276;2022-09-09T19:19:06;1.00;;;1.00;;
19946;SDS011;10135;50.702;7.276;2022-09-09T19:21:23;0.70;;;0.70;;
19946;SDS011;10135;50.702;7.276;2022-09-09T19:23:30;1.23;;;1.00;;
19946;SDS011;10135;50.702;7.276;2022-09-09T19:25:35;1.63;;;0.83;;
19946;SDS011;10135;50.702;7.276;2022-09-09T19:27:36;1.10;;;1.00;;
19946;SDS011;10135;50.702;7.276;2022-09-09T19:29:37;0.80;;;0.80;;
19946;SDS011;10135;50.702;7.276;2022-09-09T19:31:42;1.53;;;1.07;;
19946;SDS011;10135;50.702;7.276;2022-09-09T19:33:44;0.70;;;0.70;;